sensor_id;sensor_type;location;lat;lon;timestamp;temperature;humidity
34522;DHT22;25561;48.888;8.736;2022-08-05T05:33:16;23.30;99.90
34522;DHT22;25561;48.888;8.736;2022-08-05T05:36:24;23.50;99.90
34522;DHT22;25561;48.888;8.736;2022-08-05T05:39:29;23.60;99.90
34522;DHT22;25561;48.888;8.736;2022-08-05T05:42:36;23.80;99.90
34522;DHT22;25561;48.888;8.736;2022-08-05T05:45:38;24.20;99.90
34522;DHT22;25561;48.888;8.736;2022-08-05T05:48:48;25.10;99.90
34522;DHT22;25561;48.888;8.736;2022-08-05T05:51:51;26.40;99.90
34522;DHT22;25561;48.888;8.736;2022-08-05T05:54:54;28.00;99.90
34522;DHT22;25561;48.888;8.736;2022-08-05T05:57:56;29.80;99.90
34522;DHT22;25561;48.888;8.736;2022-08-05T06:01:02;30.80;99.90
34522;DHT22;25561;48.888;8.736;2022-08-05T06:04:13;30.70;99.90
34522;DHT22;25561;48.888;8.736;2022-08-05T06:07:15;30.40;99.90
34522;DHT22;25561;48.888;8.736;2022-08-05T06:10:23;30.60;99.90
34522;DHT22;25561;48.888;8.736;2022-08-05T06:49:39;26.10;99.90
34522;DHT22;25561;48.888;8.736;2022-08-05T06:53:00;27.10;99.90
34522;DHT22;25561;48.888;8.736;2022-08-05T06:56:12;29.70;99.90
34522;DHT22;25561;48.888;8.736;2022-08-05T06:59:27;31.90;99.90
34522;DHT22;25561;48.888;8.736;2022-08-05T07:02:43;33.20;99.20
34522;DHT22;25561;48.888;8.736;2022-08-05T07:05:44;33.00;97.70
34522;DHT22;25561;48.888;8.736;2022-08-05T07:08:47;33.10;97.30
34522;DHT22;25561;48.888;8.736;2022-08-05T07:11:55;33.70;95.00
34522;DHT22;25561;48.888;8.736;2022-08-05T07:15:01;33.40;92.80
34522;DHT22;25561;48.888;8.736;2022-08-05T07:18:42;32.00;95.00
34522;DHT22;25561;48.888;8.736;2022-08-05T07:21:49;32.40;95.60
34522;DHT22;25561;48.888;8.736;2022-08-05T07:25:02;33.10;92.60
34522;DHT22;25561;48.888;8.736;2022-08-05T07:28:24;33.20;92.50
34522;DHT22;25561;48.888;8.736;2022-08-05T07:31:26;32.60;94.30
34522;DHT22;25561;48.888;8.736;2022-08-05T07:34:48;31.70;95.70
34522;DHT22;25561;48.888;8.736;2022-08-05T07:37:58;32.50;94.10
34522;DHT22;25561;48.888;8.736;2022-08-05T07:41:03;34.40;91.80
34522;DHT22;25561;48.888;8.736;2022-08-05T07:44:25;36.10;87.30
34522;DHT22;25561;48.888;8.736;2022-08-05T07:47:27;35.60;85.70
34522;DHT22;25561;48.888;8.736;2022-08-05T07:50:43;36.70;80.50
34522;DHT22;25561;48.888;8.736;2022-08-05T07:53:44;36.20;80.60
34522;DHT22;25561;48.888;8.736;2022-08-05T07:56:51;37.50;74.90
34522;DHT22;25561;48.888;8.736;2022-08-05T08:00:13;38.00;71.00
34522;DHT22;25561;48.888;8.736;2022-08-05T08:03:15;37.80;68.60
34522;DHT22;25561;48.888;8.736;2022-08-05T08:06:22;37.90;67.60
34522;DHT22;25561;48.888;8.736;2022-08-05T08:09:28;38.00;67.00
34522;DHT22;25561;48.888;8.736;2022-08-05T08:12:30;37.60;67.20
34522;DHT22;25561;48.888;8.736;2022-08-05T08:15:50;36.30;68.00
34522;DHT22;25561;48.888;8.736;2022-08-05T08:19:11;35.70;70.50
34522;DHT22;25561;48.888;8.736;2022-08-05T08:22:33;34.30;72.60
34522;DHT22;25561;48.888;8.736;2022-08-05T08:25:35;33.40;76.30
34522;DHT22;25561;48.888;8.736;2022-08-05T08:28:58;33.40;76.50
34522;DHT22;25561;48.888;8.736;2022-08-05T08:32:20;33.50;75.90
34522;DHT22;25561;48.888;8.736;2022-08-05T08:35:28;34.60;75.20
34522;DHT22;25561;48.888;8.736;2022-08-05T08:38:42;36.40;71.50
34522;DHT22;25561;48.888;8.736;2022-08-05T08:41:54;35.90;69.40
34522;DHT22;25561;48.888;8.736;2022-08-05T08:45:03;36.00;68.30
34522;DHT22;25561;48.888;8.736;2022-08-05T08:48:26;36.40;67.80
34522;DHT22;25561;48.888;8.736;2022-08-05T08:51:57;35.30;69.10
34522;DHT22;25561;48.888;8.736;2022-08-05T08:55:14;36.30;66.70
34522;DHT22;25561;48.888;8.736;2022-08-05T08:58:32;36.50;66.00
34522;DHT22;25561;48.888;8.736;2022-08-05T09:01:45;37.20;65.00
34522;DHT22;25561;48.888;8.736;2022-08-05T09:04:58;36.50;64.20
34522;DHT22;25561;48.888;8.736;2022-08-05T09:08:18;36.80;65.70
34522;DHT22;25561;48.888;8.736;2022-08-05T09:11:27;38.20;61.70
34522;DHT22;25561;48.888;8.736;2022-08-05T09:14:49;36.90;61.70
34522;DHT22;25561;48.888;8.736;2022-08-05T09:18:06;36.70;62.00
34522;DHT22;25561;48.888;8.736;2022-08-05T09:21:09;37.50;61.60
34522;DHT22;25561;48.888;8.736;2022-08-05T09:24:12;37.20;59.70
34522;DHT22;25561;48.888;8.736;2022-08-05T09:27:31;37.10;60.30
34522;DHT22;25561;48.888;8.736;2022-08-05T09:30:56;37.40;59.00
34522;DHT22;25561;48.888;8.736;2022-08-05T09:34:03;36.60;59.10
34522;DHT22;25561;48.888;8.736;2022-08-05T09:37:16;36.70;61.90
34522;DHT22;25561;48.888;8.736;2022-08-05T09:40:39;37.10;59.80
34522;DHT22;25561;48.888;8.736;2022-08-05T09:43:53;37.70;59.00
34522;DHT22;25561;48.888;8.736;2022-08-05T09:47:06;37.90;58.30
34522;DHT22;25561;48.888;8.736;2022-08-05T09:50:13;38.40;57.30
34522;DHT22;25561;48.888;8.736;2022-08-05T09:53:49;38.10;59.40
34522;DHT22;25561;48.888;8.736;2022-08-05T09:56:56;36.50;59.90
34522;DHT22;25561;48.888;8.736;2022-08-05T10:00:10;38.20;57.80
34522;DHT22;25561;48.888;8.736;2022-08-05T10:03:14;39.20;56.30
34522;DHT22;25561;48.888;8.736;2022-08-05T10:06:18;40.10;55.80
34522;DHT22;25561;48.888;8.736;2022-08-05T10:09:21;41.00;54.10
34522;DHT22;25561;48.888;8.736;2022-08-05T10:12:39;40.70;54.00
34522;DHT22;25561;48.888;8.736;2022-08-05T10:15:50;39.80;54.90
34522;DHT22;25561;48.888;8.736;2022-08-05T10:18:54;39.10;56.30
34522;DHT22;25561;48.888;8.736;2022-08-05T10:21:57;38.50;56.70
34522;DHT22;25561;48.888;8.736;2022-08-05T10:24:59;38.20;57.10
34522;DHT22;25561;48.888;8.736;2022-08-05T10:28:01;37.10;57.80
34522;DHT22;25561;48.888;8.736;2022-08-05T10:31:18;38.20;56.00
34522;DHT22;25561;48.888;8.736;2022-08-05T10:34:39;39.10;55.70
34522;DHT22;25561;48.888;8.736;2022-08-05T10:37:42;39.70;54.40
34522;DHT22;25561;48.888;8.736;2022-08-05T10:41:02;40.10;54.10
34522;DHT22;25561;48.888;8.736;2022-08-05T10:44:11;38.80;54.20
34522;DHT22;25561;48.888;8.736;2022-08-05T10:47:14;38.80;55.20
34522;DHT22;25561;48.888;8.736;2022-08-05T10:50:31;38.50;56.20
34522;DHT22;25561;48.888;8.736;2022-08-05T10:53:47;37.80;55.90
34522;DHT22;25561;48.888;8.736;2022-08-05T10:56:54;38.50;54.40
34522;DHT22;25561;48.888;8.736;2022-08-05T11:00:15;38.20;54.90
34522;DHT22;25561;48.888;8.736;2022-08-05T11:03:21;37.90;56.30
34522;DHT22;25561;48.888;8.736;2022-08-05T11:06:27;38.90;55.30
34522;DHT22;25561;48.888;8.736;2022-08-05T11:09:50;38.00;55.20
34522;DHT22;25561;48.888;8.736;2022-08-05T11:13:37;37.40;55.40
34522;DHT22;25561;48.888;8.736;2022-08-05T11:17:31;37.20;56.40
34522;DHT22;25561;48.888;8.736;2022-08-05T11:20:55;37.80;55.40
34522;DHT22;25561;48.888;8.736;2022-08-05T11:24:06;38.70;54.50
34522;DHT22;25561;48.888;8.736;2022-08-05T11:27:31;37.10;55.80
34522;DHT22;25561;48.888;8.736;2022-08-05T11:34:01;36.50;56.10
34522;DHT22;25561;48.888;8.736;2022-08-05T11:37:04;37.00;56.20
34522;DHT22;25561;48.888;8.736;2022-08-05T11:41:02;37.50;54.80
34522;DHT22;25561;48.888;8.736;2022-08-05T11:44:24;37.60;55.00
34522;DHT22;25561;48.888;8.736;2022-08-05T11:47:54;36.90;55.50
34522;DHT22;25561;48.888;8.736;2022-08-05T11:50:59;36.20;55.90
34522;DHT22;25561;48.888;8.736;2022-08-05T11:54:01;36.30;56.00
34522;DHT22;25561;48.888;8.736;2022-08-05T11:57:04;35.40;57.10
34522;DHT22;25561;48.888;8.736;2022-08-05T12:00:29;34.80;57.80
34522;DHT22;25561;48.888;8.736;2022-08-05T12:03:48;34.50;58.40
34522;DHT22;25561;48.888;8.736;2022-08-05T12:06:59;34.50;59.30
34522;DHT22;25561;48.888;8.736;2022-08-05T12:10:03;34.20;58.90
34522;DHT22;25561;48.888;8.736;2022-08-05T12:13:14;33.50;59.90
34522;DHT22;25561;48.888;8.736;2022-08-05T12:16:37;33.40;60.90
34522;DHT22;25561;48.888;8.736;2022-08-05T12:19:41;32.70;62.40
34522;DHT22;25561;48.888;8.736;2022-08-05T12:23:08;33.30;62.10
34522;DHT22;25561;48.888;8.736;2022-08-05T12:26:10;34.00;60.20
34522;DHT22;25561;48.888;8.736;2022-08-05T12:29:22;33.90;60.20
34522;DHT22;25561;48.888;8.736;2022-08-05T12:32:24;34.20;59.30
34522;DHT22;25561;48.888;8.736;2022-08-05T12:35:26;33.60;60.40
34522;DHT22;25561;48.888;8.736;2022-08-05T12:38:40;33.70;61.40
34522;DHT22;25561;48.888;8.736;2022-08-05T12:41:44;33.60;60.90
34522;DHT22;25561;48.888;8.736;2022-08-05T12:44:46;33.80;61.20
34522;DHT22;25561;48.888;8.736;2022-08-05T12:47:48;33.40;62.30
34522;DHT22;25561;48.888;8.736;2022-08-05T12:51:13;33.70;62.30
34522;DHT22;25561;48.888;8.736;2022-08-05T12:54:39;33.90;61.30
34522;DHT22;25561;48.888;8.736;2022-08-05T12:57:42;33.90;61.00
34522;DHT22;25561;48.888;8.736;2022-08-05T13:01:03;33.50;62.10
34522;DHT22;25561;48.888;8.736;2022-08-05T13:04:28;33.10;63.50
34522;DHT22;25561;48.888;8.736;2022-08-05T13:07:30;32.30;64.80
34522;DHT22;25561;48.888;8.736;2022-08-05T13:10:59;32.70;65.40
34522;DHT22;25561;48.888;8.736;2022-08-05T13:14:01;33.20;64.00
34522;DHT22;25561;48.888;8.736;2022-08-05T13:17:16;33.30;63.70
34522;DHT22;25561;48.888;8.736;2022-08-05T13:20:33;32.70;64.40
34522;DHT22;25561;48.888;8.736;2022-08-05T13:23:41;32.50;65.10
34522;DHT22;25561;48.888;8.736;2022-08-05T13:26:52;32.70;65.20
34522;DHT22;25561;48.888;8.736;2022-08-05T13:29:54;32.50;64.40
34522;DHT22;25561;48.888;8.736;2022-08-05T13:33:16;32.70;64.40
34522;DHT22;25561;48.888;8.736;2022-08-05T13:36:38;32.90;64.00
34522;DHT22;25561;48.888;8.736;2022-08-05T13:39:40;32.40;64.60
34522;DHT22;25561;48.888;8.736;2022-08-05T13:43:02;32.10;65.90
34522;DHT22;25561;48.888;8.736;2022-08-05T13:46:13;32.10;66.20
34522;DHT22;25561;48.888;8.736;2022-08-05T13:49:15;32.70;65.40
34522;DHT22;25561;48.888;8.736;2022-08-05T13:52:22;32.40;66.90
34522;DHT22;25561;48.888;8.736;2022-08-05T13:55:29;32.20;68.10
34522;DHT22;25561;48.888;8.736;2022-08-05T13:58:42;31.60;69.80
34522;DHT22;25561;48.888;8.736;2022-08-05T14:01:55;31.40;71.10
34522;DHT22;25561;48.888;8.736;2022-08-05T14:05:00;30.80;72.10
34522;DHT22;25561;48.888;8.736;2022-08-05T14:08:29;31.00;72.60
34522;DHT22;25561;48.888;8.736;2022-08-05T14:11:33;30.90;72.80
34522;DHT22;25561;48.888;8.736;2022-08-05T14:14:59;31.20;72.80
34522;DHT22;25561;48.888;8.736;2022-08-05T14:18:06;31.10;72.20
34522;DHT22;25561;48.888;8.736;2022-08-05T14:21:19;30.80;74.60
34522;DHT22;25561;48.888;8.736;2022-08-05T14:24:41;30.80;77.70
34522;DHT22;25561;48.888;8.736;2022-08-05T14:27:48;30.50;79.50
34522;DHT22;25561;48.888;8.736;2022-08-05T14:30:51;30.40;80.70
34522;DHT22;25561;48.888;8.736;2022-08-05T14:33:54;30.20;82.00
34522;DHT22;25561;48.888;8.736;2022-08-05T14:37:00;30.40;82.10
34522;DHT22;25561;48.888;8.736;2022-08-05T14:40:02;30.50;82.40
34522;DHT22;25561;48.888;8.736;2022-08-05T14:43:04;30.40;83.30
34522;DHT22;25561;48.888;8.736;2022-08-05T14:46:11;30.40;83.30
34522;DHT22;25561;48.888;8.736;2022-08-05T14:49:13;30.60;83.50
34522;DHT22;25561;48.888;8.736;2022-08-05T14:52:15;30.60;84.60
34522;DHT22;25561;48.888;8.736;2022-08-05T14:55:36;30.20;85.50
34522;DHT22;25561;48.888;8.736;2022-08-05T14:58:40;29.80;87.40
34522;DHT22;25561;48.888;8.736;2022-08-05T15:01:53;29.60;88.80
34522;DHT22;25561;48.888;8.736;2022-08-05T15:04:57;29.40;90.00
34522;DHT22;25561;48.888;8.736;2022-08-05T15:08:01;29.10;90.90
34522;DHT22;25561;48.888;8.736;2022-08-05T15:11:17;29.30;91.00
34522;DHT22;25561;48.888;8.736;2022-08-05T15:14:20;29.40;91.50
34522;DHT22;25561;48.888;8.736;2022-08-05T15:17:37;29.50;91.50
34522;DHT22;25561;48.888;8.736;2022-08-05T15:20:48;29.50;91.60
34522;DHT22;25561;48.888;8.736;2022-08-05T15:23:50;28.90;92.80
34522;DHT22;25561;48.888;8.736;2022-08-05T15:26:51;28.60;93.90
34522;DHT22;25561;48.888;8.736;2022-08-05T15:29:56;28.50;94.70
34522;DHT22;25561;48.888;8.736;2022-08-05T15:32:58;28.70;94.40
34522;DHT22;25561;48.888;8.736;2022-08-05T15:36:03;28.90;94.20
34522;DHT22;25561;48.888;8.736;2022-08-05T15:39:05;28.70;95.00
34522;DHT22;25561;48.888;8.736;2022-08-05T15:42:27;28.80;95.00
34522;DHT22;25561;48.888;8.736;2022-08-05T15:45:49;28.60;94.90
34522;DHT22;25561;48.888;8.736;2022-08-05T15:49:02;28.10;95.80
34522;DHT22;25561;48.888;8.736;2022-08-05T15:52:12;28.20;95.70
34522;DHT22;25561;48.888;8.736;2022-08-05T15:55:34;28.30;95.40
34522;DHT22;25561;48.888;8.736;2022-08-05T15:58:56;28.40;95.20
